sensor_id;sensor_type;location;lat;lon;timestamp;temperature;humidity
49615;DHT22;35517;45.272;9.984;2024-02-23T00:01:44;9.90;99.90
49615;DHT22;35517;45.272;9.984;2024-02-23T00:04:11;9.90;99.90
49615;DHT22;35517;45.272;9.984;2024-02-23T00:06:37;9.90;99.90
49615;DHT22;35517;45.272;9.984;2024-02-23T00:09:03;9.90;99.90
49615;DHT22;35517;45.272;9.984;2024-02-23T00:11:30;9.90;99.90
49615;DHT22;35517;45.272;9.984;2024-02-23T00:13:58;9.90;99.90
49615;DHT22;35517;45.272;9.984;2024-02-23T00:16:25;9.90;99.90
49615;DHT22;35517;45.272;9.984;2024-02-23T00:18:52;9.80;99.90
49615;DHT22;35517;45.272;9.984;2024-02-23T00:21:19;9.90;99.90
49615;DHT22;35517;45.272;9.984;2024-02-23T00:23:45;9.80;99.90
49615;DHT22;35517;45.272;9.984;2024-02-23T00:26:11;9.90;99.90
49615;DHT22;35517;45.272;9.984;2024-02-23T00:28:37;9.80;99.90
49615;DHT22;35517;45.272;9.984;2024-02-23T00:31:03;9.80;99.90
49615;DHT22;35517;45.272;9.984;2024-02-23T00:33:31;9.80;99.90
49615;DHT22;35517;45.272;9.984;2024-02-23T00:35:58;9.90;99.90
49615;DHT22;35517;45.272;9.984;2024-02-23T00:38:24;9.80;99.90
49615;DHT22;35517;45.272;9.984;2024-02-23T00:40:51;9.90;99.90
49615;DHT22;35517;45.272;9.984;2024-02-23T00:43:19;9.80;99.90
49615;DHT22;35517;45.272;9.984;2024-02-23T00:45:45;9.80;99.90
49615;DHT22;35517;45.272;9.984;2024-02-23T00:48:12;9.80;99.90
49615;DHT22;35517;45.272;9.984;2024-02-23T00:50:39;9.80;99.90
49615;DHT22;35517;45.272;9.984;2024-02-23T00:53:06;9.80;99.90
49615;DHT22;35517;45.272;9.984;2024-02-23T00:55:32;9.80;99.90
49615;DHT22;35517;45.272;9.984;2024-02-23T00:57:58;9.80;99.90
49615;DHT22;35517;45.272;9.984;2024-02-23T01:00:31;9.80;99.90
49615;DHT22;35517;45.272;9.984;2024-02-23T01:02:58;9.80;99.90
49615;DHT22;35517;45.272;9.984;2024-02-23T01:05:25;9.80;99.90
49615;DHT22;35517;45.272;9.984;2024-02-23T01:07:53;9.80;99.90
49615;DHT22;35517;45.272;9.984;2024-02-23T01:10:19;9.80;99.90
49615;DHT22;35517;45.272;9.984;2024-02-23T01:12:45;9.80;99.90
49615;DHT22;35517;45.272;9.984;2024-02-23T01:15:11;9.80;99.90
49615;DHT22;35517;45.272;9.984;2024-02-23T01:17:37;9.80;99.90
49615;DHT22;35517;45.272;9.984;2024-02-23T01:20:04;9.80;99.90
49615;DHT22;35517;45.272;9.984;2024-02-23T01:22:31;9.80;99.90
49615;DHT22;35517;45.272;9.984;2024-02-23T01:24:57;9.80;99.90
49615;DHT22;35517;45.272;9.984;2024-02-23T01:27:23;9.80;99.90
49615;DHT22;35517;45.272;9.984;2024-02-23T01:29:49;9.90;99.90
49615;DHT22;35517;45.272;9.984;2024-02-23T01:32:16;9.80;99.90
49615;DHT22;35517;45.272;9.984;2024-02-23T01:34:42;9.90;99.90
49615;DHT22;35517;45.272;9.984;2024-02-23T01:37:08;9.90;99.90
49615;DHT22;35517;45.272;9.984;2024-02-23T01:39:34;9.90;99.90
49615;DHT22;35517;45.272;9.984;2024-02-23T01:42:01;9.90;99.90
49615;DHT22;35517;45.272;9.984;2024-02-23T01:44:27;9.80;99.90
49615;DHT22;35517;45.272;9.984;2024-02-23T01:46:53;9.80;99.90
49615;DHT22;35517;45.272;9.984;2024-02-23T01:49:20;9.90;99.90
49615;DHT22;35517;45.272;9.984;2024-02-23T01:51:48;9.90;99.90
49615;DHT22;35517;45.272;9.984;2024-02-23T01:54:15;9.80;99.90
49615;DHT22;35517;45.272;9.984;2024-02-23T01:56:42;9.90;99.90
49615;DHT22;35517;45.272;9.984;2024-02-23T01:59:10;9.90;99.90
49615;DHT22;35517;45.272;9.984;2024-02-23T02:01:38;9.80;99.90
49615;DHT22;35517;45.272;9.984;2024-02-23T02:04:05;9.90;99.90
49615;DHT22;35517;45.272;9.984;2024-02-23T02:06:31;9.90;99.90
49615;DHT22;35517;45.272;9.984;2024-02-23T02:08:57;9.90;99.90
49615;DHT22;35517;45.272;9.984;2024-02-23T02:11:24;9.90;99.90
49615;DHT22;35517;45.272;9.984;2024-02-23T02:13:59;9.90;99.90
49615;DHT22;35517;45.272;9.984;2024-02-23T02:16:25;9.90;99.90
49615;DHT22;35517;45.272;9.984;2024-02-23T02:18:52;9.90;99.90
49615;DHT22;35517;45.272;9.984;2024-02-23T02:21:18;9.90;99.90
49615;DHT22;35517;45.272;9.984;2024-02-23T02:23:44;9.90;99.90
49615;DHT22;35517;45.272;9.984;2024-02-23T02:26:10;9.90;99.90
49615;DHT22;35517;45.272;9.984;2024-02-23T02:28:37;9.90;99.90
49615;DHT22;35517;45.272;9.984;2024-02-23T02:31:03;9.90;99.90
49615;DHT22;35517;45.272;9.984;2024-02-23T02:33:30;9.90;99.90
49615;DHT22;35517;45.272;9.984;2024-02-23T02:35:57;9.90;99.90
49615;DHT22;35517;45.272;9.984;2024-02-23T02:38:23;9.90;99.90
49615;DHT22;35517;45.272;9.984;2024-02-23T02:40:49;9.90;99.90
49615;DHT22;35517;45.272;9.984;2024-02-23T02:43:18;9.90;99.90
49615;DHT22;35517;45.272;9.984;2024-02-23T02:45:44;9.90;99.90
49615;DHT22;35517;45.272;9.984;2024-02-23T02:48:10;9.90;99.90
49615;DHT22;35517;45.272;9.984;2024-02-23T02:50:36;9.90;99.90
49615;DHT22;35517;45.272;9.984;2024-02-23T02:53:04;9.90;99.90
49615;DHT22;35517;45.272;9.984;2024-02-23T02:55:30;9.90;99.90
49615;DHT22;35517;45.272;9.984;2024-02-23T02:57:56;9.90;99.90
49615;DHT22;35517;45.272;9.984;2024-02-23T03:00:22;9.90;99.90
49615;DHT22;35517;45.272;9.984;2024-02-23T03:02:50;9.90;99.90
49615;DHT22;35517;45.272;9.984;2024-02-23T03:05:16;10.00;99.90
49615;DHT22;35517;45.272;9.984;2024-02-23T03:07:42;10.00;99.90
49615;DHT22;35517;45.272;9.984;2024-02-23T03:10:11;10.00;99.90
49615;DHT22;35517;45.272;9.984;2024-02-23T03:12:37;9.90;99.90
49615;DHT22;35517;45.272;9.984;2024-02-23T03:15:04;9.90;99.90
49615;DHT22;35517;45.272;9.984;2024-02-23T03:17:31;9.90;99.90
49615;DHT22;35517;45.272;9.984;2024-02-23T03:19:57;9.90;99.90
49615;DHT22;35517;45.272;9.984;2024-02-23T03:22:24;9.90;99.90
49615;DHT22;35517;45.272;9.984;2024-02-23T03:24:50;9.90;99.90
49615;DHT22;35517;45.272;9.984;2024-02-23T03:27:16;9.90;99.90
49615;DHT22;35517;45.272;9.984;2024-02-23T03:29:42;9.90;99.90
49615;DHT22;35517;45.272;9.984;2024-02-23T03:32:08;9.90;99.90
49615;DHT22;35517;45.272;9.984;2024-02-23T03:34:35;9.90;99.90
49615;DHT22;35517;45.272;9.984;2024-02-23T03:37:02;9.90;99.90
49615;DHT22;35517;45.272;9.984;2024-02-23T03:39:29;9.80;99.90
49615;DHT22;35517;45.272;9.984;2024-02-23T03:41:55;9.90;99.90
49615;DHT22;35517;45.272;9.984;2024-02-23T03:44:21;9.90;99.90
49615;DHT22;35517;45.272;9.984;2024-02-23T03:46:47;9.80;99.90
49615;DHT22;35517;45.272;9.984;2024-02-23T03:49:14;9.80;99.90
49615;DHT22;35517;45.272;9.984;2024-02-23T03:51:40;9.80;99.90
49615;DHT22;35517;45.272;9.984;2024-02-23T03:54:06;9.80;99.90
49615;DHT22;35517;45.272;9.984;2024-02-23T03:56:40;9.80;99.90
49615;DHT22;35517;45.272;9.984;2024-02-23T03:59:07;9.80;99.90
49615;DHT22;35517;45.272;9.984;2024-02-23T04:01:38;9.80;99.90
49615;DHT22;35517;45.272;9.984;2024-02-23T04:04:05;9.80;99.90
49615;DHT22;35517;45.272;9.984;2024-02-23T04:06:32;9.80;99.90
49615;DHT22;35517;45.272;9.984;2024-02-23T04:08:59;9.80;99.90
49615;DHT22;35517;45.272;9.984;2024-02-23T04:11:25;9.70;99.90
49615;DHT22;35517;45.272;9.984;2024-02-23T04:13:51;9.70;99.90
49615;DHT22;35517;45.272;9.984;2024-02-23T04:16:18;9.80;99.90
49615;DHT22;35517;45.272;9.984;2024-02-23T04:18:45;9.70;99.90
49615;DHT22;35517;45.272;9.984;2024-02-23T04:21:11;9.70;99.90
49615;DHT22;35517;45.272;9.984;2024-02-23T04:23:37;9.70;99.90
49615;DHT22;35517;45.272;9.984;2024-02-23T04:26:12;9.70;99.90
49615;DHT22;35517;45.272;9.984;2024-02-23T04:28:42;9.70;99.90
49615;DHT22;35517;45.272;9.984;2024-02-23T04:31:08;9.70;99.90
49615;DHT22;35517;45.272;9.984;2024-02-23T04:33:38;9.70;99.90
49615;DHT22;35517;45.272;9.984;2024-02-23T04:36:05;9.70;99.90
49615;DHT22;35517;45.272;9.984;2024-02-23T04:38:33;9.70;99.90
49615;DHT22;35517;45.272;9.984;2024-02-23T04:41:03;9.70;99.90
49615;DHT22;35517;45.272;9.984;2024-02-23T04:43:30;9.70;99.90
49615;DHT22;35517;45.272;9.984;2024-02-23T04:45:56;9.70;99.90
49615;DHT22;35517;45.272;9.984;2024-02-23T04:48:23;9.70;99.90
49615;DHT22;35517;45.272;9.984;2024-02-23T04:50:49;9.70;99.90
49615;DHT22;35517;45.272;9.984;2024-02-23T04:53:15;9.70;99.90
49615;DHT22;35517;45.272;9.984;2024-02-23T04:55:41;9.70;99.90
49615;DHT22;35517;45.272;9.984;2024-02-23T04:58:07;9.70;99.90
49615;DHT22;35517;45.272;9.984;2024-02-23T05:00:34;9.70;99.90
49615;DHT22;35517;45.272;9.984;2024-02-23T05:03:02;9.70;99.90
49615;DHT22;35517;45.272;9.984;2024-02-23T05:05:32;9.70;99.90
49615;DHT22;35517;45.272;9.984;2024-02-23T05:07:59;9.60;99.90
49615;DHT22;35517;45.272;9.984;2024-02-23T05:10:25;9.60;99.90
49615;DHT22;35517;45.272;9.984;2024-02-23T05:12:56;9.60;99.90
49615;DHT22;35517;45.272;9.984;2024-02-23T05:15:23;9.60;99.90
49615;DHT22;35517;45.272;9.984;2024-02-23T05:17:49;9.60;99.90
49615;DHT22;35517;45.272;9.984;2024-02-23T05:20:17;9.60;99.90
49615;DHT22;35517;45.272;9.984;2024-02-23T05:22:44;9.60;99.90
49615;DHT22;35517;45.272;9.984;2024-02-23T05:25:10;9.60;99.90
49615;DHT22;35517;45.272;9.984;2024-02-23T05:27:37;9.60;99.90
49615;DHT22;35517;45.272;9.984;2024-02-23T05:30:04;9.60;99.90
49615;DHT22;35517;45.272;9.984;2024-02-23T05:32:30;9.60;99.90
49615;DHT22;35517;45.272;9.984;2024-02-23T05:34:56;9.60;99.90
49615;DHT22;35517;45.272;9.984;2024-02-23T05:37:22;9.60;99.90
49615;DHT22;35517;45.272;9.984;2024-02-23T05:39:50;9.60;99.90
49615;DHT22;35517;45.272;9.984;2024-02-23T05:42:16;9.70;99.90
49615;DHT22;35517;45.272;9.984;2024-02-23T05:44:46;9.60;99.90
49615;DHT22;35517;45.272;9.984;2024-02-23T05:47:12;9.60;99.90
49615;DHT22;35517;45.272;9.984;2024-02-23T05:49:40;9.60;99.90
49615;DHT22;35517;45.272;9.984;2024-02-23T05:52:06;9.60;99.90
49615;DHT22;35517;45.272;9.984;2024-02-23T05:54:41;9.60;99.90
49615;DHT22;35517;45.272;9.984;2024-02-23T05:57:08;9.60;99.90
49615;DHT22;35517;45.272;9.984;2024-02-23T05:59:34;9.60;99.90
49615;DHT22;35517;45.272;9.984;2024-02-23T06:02:00;9.60;99.90
49615;DHT22;35517;45.272;9.984;2024-02-23T06:04:27;9.60;99.90
49615;DHT22;35517;45.272;9.984;2024-02-23T06:06:53;9.50;99.90
49615;DHT22;35517;45.272;9.984;2024-02-23T06:09:20;9.50;99.90
49615;DHT22;35517;45.272;9.984;2024-02-23T06:11:46;9.50;99.90
49615;DHT22;35517;45.272;9.984;2024-02-23T06:14:13;9.50;99.90
49615;DHT22;35517;45.272;9.984;2024-02-23T06:16:39;9.50;99.90
49615;DHT22;35517;45.272;9.984;2024-02-23T06:19:06;9.60;99.90
49615;DHT22;35517;45.272;9.984;2024-02-23T06:21:32;9.50;99.90
49615;DHT22;35517;45.272;9.984;2024-02-23T06:23:59;9.60;99.90
49615;DHT22;35517;45.272;9.984;2024-02-23T06:26:25;9.50;99.90
49615;DHT22;35517;45.272;9.984;2024-02-23T06:28:51;9.50;99.90
49615;DHT22;35517;45.272;9.984;2024-02-23T06:31:17;9.50;99.90
49615;DHT22;35517;45.272;9.984;2024-02-23T06:33:43;9.50;99.90
49615;DHT22;35517;45.272;9.984;2024-02-23T06:36:10;9.50;99.90
49615;DHT22;35517;45.272;9.984;2024-02-23T06:38:36;9.50;99.90
49615;DHT22;35517;45.272;9.984;2024-02-23T06:41:02;9.50;99.90
49615;DHT22;35517;45.272;9.984;2024-02-23T06:43:28;9.40;99.90
49615;DHT22;35517;45.272;9.984;2024-02-23T06:45:55;9.60;99.90
49615;DHT22;35517;45.272;9.984;2024-02-23T06:48:23;9.50;99.90
49615;DHT22;35517;45.272;9.984;2024-02-23T06:50:50;9.50;99.90
49615;DHT22;35517;45.272;9.984;2024-02-23T06:53:16;9.50;99.90
49615;DHT22;35517;45.272;9.984;2024-02-23T06:55:42;9.50;99.90
49615;DHT22;35517;45.272;9.984;2024-02-23T06:58:08;9.50;99.90
49615;DHT22;35517;45.272;9.984;2024-02-23T07:00:36;9.50;99.90
49615;DHT22;35517;45.272;9.984;2024-02-23T07:03:02;9.60;99.90
49615;DHT22;35517;45.272;9.984;2024-02-23T07:05:29;9.60;99.90
49615;DHT22;35517;45.272;9.984;2024-02-23T07:07:56;9.60;99.90
49615;DHT22;35517;45.272;9.984;2024-02-23T07:10:22;9.60;99.90
49615;DHT22;35517;45.272;9.984;2024-02-23T07:12:51;9.60;99.90
49615;DHT22;35517;45.272;9.984;2024-02-23T07:15:20;9.60;99.90
49615;DHT22;35517;45.272;9.984;2024-02-23T07:17:46;9.70;99.90
49615;DHT22;35517;45.272;9.984;2024-02-23T07:20:13;9.70;99.90
49615;DHT22;35517;45.272;9.984;2024-02-23T07:22:42;9.70;99.90
49615;DHT22;35517;45.272;9.984;2024-02-23T07:25:09;9.70;99.90
49615;DHT22;35517;45.272;9.984;2024-02-23T07:27:35;9.70;99.90
49615;DHT22;35517;45.272;9.984;2024-02-23T07:30:01;9.70;99.90
49615;DHT22;35517;45.272;9.984;2024-02-23T07:32:28;9.70;99.90
49615;DHT22;35517;45.272;9.984;2024-02-23T07:34:55;9.60;99.90
49615;DHT22;35517;45.272;9.984;2024-02-23T07:37:22;9.70;99.90
49615;DHT22;35517;45.272;9.984;2024-02-23T07:39:48;9.60;99.90
49615;DHT22;35517;45.272;9.984;2024-02-23T07:42:14;9.70;99.90
49615;DHT22;35517;45.272;9.984;2024-02-23T07:44:45;9.70;99.90
49615;DHT22;35517;45.272;9.984;2024-02-23T07:47:11;9.70;99.90
49615;DHT22;35517;45.272;9.984;2024-02-23T07:49:38;9.70;99.90
49615;DHT22;35517;45.272;9.984;2024-02-23T07:52:06;9.60;99.90
49615;DHT22;35517;45.272;9.984;2024-02-23T07:54:33;9.70;99.90
49615;DHT22;35517;45.272;9.984;2024-02-23T07:56:59;9.70;99.90
49615;DHT22;35517;45.272;9.984;2024-02-23T07:59:25;9.80;99.90
49615;DHT22;35517;45.272;9.984;2024-02-23T08:01:51;9.70;99.90
49615;DHT22;35517;45.272;9.984;2024-02-23T08:04:17;9.80;99.90
49615;DHT22;35517;45.272;9.984;2024-02-23T08:06:44;9.70;99.90
49615;DHT22;35517;45.272;9.984;2024-02-23T08:09:10;9.80;99.90
49615;DHT22;35517;45.272;9.984;2024-02-23T08:11:36;9.90;99.90
49615;DHT22;35517;45.272;9.984;2024-02-23T08:14:02;9.90;99.90
49615;DHT22;35517;45.272;9.984;2024-02-23T08:16:29;9.90;99.90
49615;DHT22;35517;45.272;9.984;2024-02-23T08:18:55;10.00;99.90
49615;DHT22;35517;45.272;9.984;2024-02-23T08:21:21;10.00;99.90
49615;DHT22;35517;45.272;9.984;2024-02-23T08:23:47;10.10;99.90
49615;DHT22;35517;45.272;9.984;2024-02-23T08:26:13;10.10;99.90
49615;DHT22;35517;45.272;9.984;2024-02-23T08:28:41;10.20;99.90
49615;DHT22;35517;45.272;9.984;2024-02-23T08:31:07;10.20;99.90
49615;DHT22;35517;45.272;9.984;2024-02-23T08:33:33;10.20;99.90
49615;DHT22;35517;45.272;9.984;2024-02-23T08:36:00;10.20;99.90
49615;DHT22;35517;45.272;9.984;2024-02-23T08:38:26;10.20;99.90
49615;DHT22;35517;45.272;9.984;2024-02-23T08:40:52;10.20;99.90
49615;DHT22;35517;45.272;9.984;2024-02-23T08:43:18;10.20;99.90
49615;DHT22;35517;45.272;9.984;2024-02-23T08:45:46;10.10;99.90
49615;DHT22;35517;45.272;9.984;2024-02-23T08:48:12;10.20;99.90
49615;DHT22;35517;45.272;9.984;2024-02-23T08:50:41;10.20;99.90
49615;DHT22;35517;45.272;9.984;2024-02-23T08:53:07;10.20;99.90
49615;DHT22;35517;45.272;9.984;2024-02-23T08:55:33;10.30;99.90
49615;DHT22;35517;45.272;9.984;2024-02-23T08:57:59;10.40;99.90
49615;DHT22;35517;45.272;9.984;2024-02-23T09:00:26;10.40;99.90
49615;DHT22;35517;45.272;9.984;2024-02-23T09:02:52;10.50;99.90
49615;DHT22;35517;45.272;9.984;2024-02-23T09:05:18;10.50;99.90
49615;DHT22;35517;45.272;9.984;2024-02-23T09:07:45;10.40;99.90
49615;DHT22;35517;45.272;9.984;2024-02-23T09:10:11;10.50;99.90
49615;DHT22;35517;45.272;9.984;2024-02-23T09:12:38;10.60;99.90
49615;DHT22;35517;45.272;9.984;2024-02-23T09:15:04;10.60;99.90
49615;DHT22;35517;45.272;9.984;2024-02-23T09:17:31;10.60;99.90
49615;DHT22;35517;45.272;9.984;2024-02-23T09:19:57;10.70;99.90
49615;DHT22;35517;45.272;9.984;2024-02-23T09:22:24;10.80;99.90
49615;DHT22;35517;45.272;9.984;2024-02-23T09:24:50;10.60;99.90
49615;DHT22;35517;45.272;9.984;2024-02-23T09:27:16;10.60;99.90
49615;DHT22;35517;45.272;9.984;2024-02-23T09:29:42;10.80;99.90
49615;DHT22;35517;45.272;9.984;2024-02-23T09:32:08;10.70;99.90
49615;DHT22;35517;45.272;9.984;2024-02-23T09:34:35;11.10;99.90
49615;DHT22;35517;45.272;9.984;2024-02-23T09:37:01;10.80;99.90
49615;DHT22;35517;45.272;9.984;2024-02-23T09:39:27;10.80;99.90
49615;DHT22;35517;45.272;9.984;2024-02-23T09:41:56;10.80;99.90
49615;DHT22;35517;45.272;9.984;2024-02-23T09:44:32;10.80;99.90
49615;DHT22;35517;45.272;9.984;2024-02-23T09:47:02;11.10;99.90
49615;DHT22;35517;45.272;9.984;2024-02-23T09:49:38;10.80;99.90
49615;DHT22;35517;45.272;9.984;2024-02-23T09:52:07;10.80;99.90
49615;DHT22;35517;45.272;9.984;2024-02-23T09:54:35;10.90;99.90
49615;DHT22;35517;45.272;9.984;2024-02-23T09:57:03;10.90;99.90
49615;DHT22;35517;45.272;9.984;2024-02-23T09:59:30;10.80;99.90
49615;DHT22;35517;45.272;9.984;2024-02-23T10:01:57;10.90;99.90
49615;DHT22;35517;45.272;9.984;2024-02-23T10:04:24;10.80;99.90
49615;DHT22;35517;45.272;9.984;2024-02-23T10:06:52;10.90;99.90
49615;DHT22;35517;45.272;9.984;2024-02-23T10:09:18;10.80;99.90
49615;DHT22;35517;45.272;9.984;2024-02-23T10:11:45;11.10;99.90
49615;DHT22;35517;45.272;9.984;2024-02-23T10:14:17;10.90;99.90
49615;DHT22;35517;45.272;9.984;2024-02-23T10:16:43;11.20;99.90
49615;DHT22;35517;45.272;9.984;2024-02-23T10:19:09;11.10;99.90
49615;DHT22;35517;45.272;9.984;2024-02-23T10:21:36;11.20;99.90
49615;DHT22;35517;45.272;9.984;2024-02-23T10:24:02;11.30;99.90
49615;DHT22;35517;45.272;9.984;2024-02-23T10:26:28;11.30;99.90
49615;DHT22;35517;45.272;9.984;2024-02-23T10:28:55;11.20;99.90
49615;DHT22;35517;45.272;9.984;2024-02-23T10:31:24;11.30;99.90
49615;DHT22;35517;45.272;9.984;2024-02-23T10:33:50;11.30;99.90
49615;DHT22;35517;45.272;9.984;2024-02-23T10:36:18;11.40;99.90
49615;DHT22;35517;45.272;9.984;2024-02-23T10:38:45;11.50;99.90
49615;DHT22;35517;45.272;9.984;2024-02-23T10:41:17;11.40;99.90
49615;DHT22;35517;45.272;9.984;2024-02-23T10:43:46;11.50;99.90
49615;DHT22;35517;45.272;9.984;2024-02-23T10:46:13;11.50;99.90
49615;DHT22;35517;45.272;9.984;2024-02-23T10:48:41;11.50;99.90
49615;DHT22;35517;45.272;9.984;2024-02-23T10:51:08;11.40;99.90
49615;DHT22;35517;45.272;9.984;2024-02-23T10:53:36;11.50;99.90
49615;DHT22;35517;45.272;9.984;2024-02-23T10:56:03;11.60;99.90
49615;DHT22;35517;45.272;9.984;2024-02-23T10:58:30;11.60;99.90
49615;DHT22;35517;45.272;9.984;2024-02-23T11:01:01;11.70;99.90
49615;DHT22;35517;45.272;9.984;2024-02-23T11:03:32;11.50;99.90
49615;DHT22;35517;45.272;9.984;2024-02-23T11:05:59;11.60;99.90
49615;DHT22;35517;45.272;9.984;2024-02-23T11:08:29;11.60;99.90
49615;DHT22;35517;45.272;9.984;2024-02-23T11:10:55;11.40;99.90
49615;DHT22;35517;45.272;9.984;2024-02-23T11:13:34;11.60;99.90
49615;DHT22;35517;45.272;9.984;2024-02-23T11:16:04;11.70;99.90
49615;DHT22;35517;45.272;9.984;2024-02-23T11:18:34;11.90;99.90
49615;DHT22;35517;45.272;9.984;2024-02-23T11:21:02;11.60;99.90
49615;DHT22;35517;45.272;9.984;2024-02-23T11:23:41;11.60;99.90
49615;DHT22;35517;45.272;9.984;2024-02-23T11:26:11;11.90;99.90
49615;DHT22;35517;45.272;9.984;2024-02-23T11:28:51;11.60;99.90
49615;DHT22;35517;45.272;9.984;2024-02-23T11:31:21;11.60;99.90
49615;DHT22;35517;45.272;9.984;2024-02-23T11:33:52;11.80;99.90
49615;DHT22;35517;45.272;9.984;2024-02-23T11:36:29;11.80;99.90
49615;DHT22;35517;45.272;9.984;2024-02-23T11:39:00;11.80;99.90
49615;DHT22;35517;45.272;9.984;2024-02-23T11:41:27;11.70;99.90
49615;DHT22;35517;45.272;9.984;2024-02-23T11:43:55;11.70;99.90
49615;DHT22;35517;45.272;9.984;2024-02-23T11:46:22;11.70;99.90
49615;DHT22;35517;45.272;9.984;2024-02-23T11:48:49;11.70;99.90
49615;DHT22;35517;45.272;9.984;2024-02-23T11:51:22;11.60;99.90
49615;DHT22;35517;45.272;9.984;2024-02-23T11:53:49;11.60;99.90
49615;DHT22;35517;45.272;9.984;2024-02-23T11:56:19;11.50;99.90
49615;DHT22;35517;45.272;9.984;2024-02-23T11:58:46;11.60;99.90
49615;DHT22;35517;45.272;9.984;2024-02-23T12:01:12;11.40;99.90
49615;DHT22;35517;45.272;9.984;2024-02-23T12:03:38;11.50;99.90
49615;DHT22;35517;45.272;9.984;2024-02-23T12:06:07;11.40;99.90
49615;DHT22;35517;45.272;9.984;2024-02-23T12:08:33;11.50;99.90
49615;DHT22;35517;45.272;9.984;2024-02-23T12:11:05;11.70;99.90
49615;DHT22;35517;45.272;9.984;2024-02-23T12:13:31;11.40;99.90
49615;DHT22;35517;45.272;9.984;2024-02-23T12:15:58;11.40;99.90
49615;DHT22;35517;45.272;9.984;2024-02-23T12:18:24;11.60;99.90
49615;DHT22;35517;45.272;9.984;2024-02-23T12:21:04;11.50;99.90
49615;DHT22;35517;45.272;9.984;2024-02-23T12:23:43;11.50;99.90
49615;DHT22;35517;45.272;9.984;2024-02-23T12:26:10;11.50;99.90
49615;DHT22;35517;45.272;9.984;2024-02-23T12:28:39;11.30;99.90
49615;DHT22;35517;45.272;9.984;2024-02-23T12:31:06;11.70;99.90
49615;DHT22;35517;45.272;9.984;2024-02-23T12:33:37;11.50;99.90
49615;DHT22;35517;45.272;9.984;2024-02-23T12:36:04;12.10;99.90
49615;DHT22;35517;45.272;9.984;2024-02-23T12:38:31;12.20;99.90
49615;DHT22;35517;45.272;9.984;2024-02-23T12:40:58;12.10;99.90
49615;DHT22;35517;45.272;9.984;2024-02-23T12:43:25;12.00;99.90
49615;DHT22;35517;45.272;9.984;2024-02-23T12:45:55;12.20;99.90
49615;DHT22;35517;45.272;9.984;2024-02-23T12:48:22;12.00;99.90
49615;DHT22;35517;45.272;9.984;2024-02-23T12:50:49;12.40;99.90
49615;DHT22;35517;45.272;9.984;2024-02-23T12:53:35;11.80;99.90
49615;DHT22;35517;45.272;9.984;2024-02-23T12:56:09;11.80;99.90
49615;DHT22;35517;45.272;9.984;2024-02-23T12:58:36;12.00;99.90
49615;DHT22;35517;45.272;9.984;2024-02-23T13:01:02;12.20;99.90
49615;DHT22;35517;45.272;9.984;2024-02-23T13:03:29;12.20;99.90
49615;DHT22;35517;45.272;9.984;2024-02-23T13:05:56;12.00;99.90
49615;DHT22;35517;45.272;9.984;2024-02-23T13:08:23;12.20;99.90
49615;DHT22;35517;45.272;9.984;2024-02-23T13:10:50;12.40;99.90
49615;DHT22;35517;45.272;9.984;2024-02-23T13:13:16;12.20;99.90
49615;DHT22;35517;45.272;9.984;2024-02-23T13:15:47;12.30;99.90
49615;DHT22;35517;45.272;9.984;2024-02-23T13:18:13;12.10;99.90
49615;DHT22;35517;45.272;9.984;2024-02-23T13:20:40;12.10;99.90
49615;DHT22;35517;45.272;9.984;2024-02-23T13:23:10;12.20;99.90
49615;DHT22;35517;45.272;9.984;2024-02-23T13:25:38;11.90;99.90
49615;DHT22;35517;45.272;9.984;2024-02-23T13:28:05;12.10;99.90
49615;DHT22;35517;45.272;9.984;2024-02-23T13:30:32;12.30;99.90
49615;DHT22;35517;45.272;9.984;2024-02-23T13:32:59;12.20;99.90
49615;DHT22;35517;45.272;9.984;2024-02-23T13:35:26;12.20;99.90
49615;DHT22;35517;45.272;9.984;2024-02-23T13:37:53;12.10;99.90
49615;DHT22;35517;45.272;9.984;2024-02-23T13:40:19;12.10;99.90
49615;DHT22;35517;45.272;9.984;2024-02-23T13:42:46;11.90;99.90
49615;DHT22;35517;45.272;9.984;2024-02-23T13:45:16;11.90;99.90
49615;DHT22;35517;45.272;9.984;2024-02-23T13:47:43;12.00;99.90
49615;DHT22;35517;45.272;9.984;2024-02-23T13:50:21;12.20;99.90
49615;DHT22;35517;45.272;9.984;2024-02-23T13:52:48;12.00;99.90
49615;DHT22;35517;45.272;9.984;2024-02-23T13:55:14;11.70;99.90
49615;DHT22;35517;45.272;9.984;2024-02-23T13:57:40;12.00;99.90
49615;DHT22;35517;45.272;9.984;2024-02-23T14:00:07;11.90;99.90
49615;DHT22;35517;45.272;9.984;2024-02-23T14:02:39;12.10;99.90
49615;DHT22;35517;45.272;9.984;2024-02-23T14:05:08;11.80;99.90
49615;DHT22;35517;45.272;9.984;2024-02-23T14:07:35;12.10;99.90
49615;DHT22;35517;45.272;9.984;2024-02-23T14:10:02;11.90;99.90
49615;DHT22;35517;45.272;9.984;2024-02-23T14:12:29;11.90;99.90
49615;DHT22;35517;45.272;9.984;2024-02-23T14:14:55;12.10;99.90
49615;DHT22;35517;45.272;9.984;2024-02-23T14:17:22;12.10;99.90
49615;DHT22;35517;45.272;9.984;2024-02-23T14:19:48;12.10;99.90
49615;DHT22;35517;45.272;9.984;2024-02-23T14:22:16;11.90;99.90
49615;DHT22;35517;45.272;9.984;2024-02-23T14:24:43;11.90;99.90
49615;DHT22;35517;45.272;9.984;2024-02-23T14:27:09;12.20;99.90
49615;DHT22;35517;45.272;9.984;2024-02-23T14:29:36;11.90;99.90
49615;DHT22;35517;45.272;9.984;2024-02-23T14:32:02;12.00;99.90
49615;DHT22;35517;45.272;9.984;2024-02-23T14:34:30;12.20;99.90
49615;DHT22;35517;45.272;9.984;2024-02-23T14:36:59;11.90;99.90
49615;DHT22;35517;45.272;9.984;2024-02-23T14:39:25;12.20;99.90
49615;DHT22;35517;45.272;9.984;2024-02-23T14:41:52;12.30;99.90
49615;DHT22;35517;45.272;9.984;2024-02-23T14:44:18;12.10;99.90
49615;DHT22;35517;45.272;9.984;2024-02-23T14:46:44;12.30;99.90
49615;DHT22;35517;45.272;9.984;2024-02-23T14:49:11;12.50;99.90
49615;DHT22;35517;45.272;9.984;2024-02-23T14:51:37;12.40;99.90
49615;DHT22;35517;45.272;9.984;2024-02-23T14:54:04;12.40;99.90
49615;DHT22;35517;45.272;9.984;2024-02-23T14:56:31;12.30;99.90
49615;DHT22;35517;45.272;9.984;2024-02-23T14:58:58;12.20;99.90
49615;DHT22;35517;45.272;9.984;2024-02-23T15:01:24;12.10;99.90
49615;DHT22;35517;45.272;9.984;2024-02-23T15:03:50;12.00;99.90
49615;DHT22;35517;45.272;9.984;2024-02-23T15:06:16;12.00;99.90
49615;DHT22;35517;45.272;9.984;2024-02-23T15:08:44;12.00;99.90
49615;DHT22;35517;45.272;9.984;2024-02-23T15:11:10;12.10;99.90
49615;DHT22;35517;45.272;9.984;2024-02-23T15:13:36;11.80;99.90
49615;DHT22;35517;45.272;9.984;2024-02-23T15:16:03;12.00;99.90
49615;DHT22;35517;45.272;9.984;2024-02-23T15:18:29;12.10;99.90
49615;DHT22;35517;45.272;9.984;2024-02-23T15:20:55;12.40;99.90
49615;DHT22;35517;45.272;9.984;2024-02-23T15:23:22;12.20;99.90
49615;DHT22;35517;45.272;9.984;2024-02-23T15:25:50;12.30;99.90
49615;DHT22;35517;45.272;9.984;2024-02-23T15:28:16;12.20;99.90
49615;DHT22;35517;45.272;9.984;2024-02-23T15:30:49;12.20;99.90
49615;DHT22;35517;45.272;9.984;2024-02-23T15:33:16;12.10;99.90
49615;DHT22;35517;45.272;9.984;2024-02-23T15:35:42;12.40;99.90
49615;DHT22;35517;45.272;9.984;2024-02-23T15:38:08;12.20;99.90
49615;DHT22;35517;45.272;9.984;2024-02-23T15:40:34;12.20;99.90